Terminal Aerodrome Forecast
Issued by NWS Missoula, MT

Current Version | Previous Version | Text Only | Print | Product List | Glossary On
Versions: 1 2 3 4 5 6 7 8 9 10 11 12 13 14
000
FTUS45 KMSO 241121
TAFGPI
TAF
KGPI 241121Z 2412/2512 20010KT P6SM BKN080
     FM250300 18008KT 6SM -RA FEW020 SCT030 OVC050=

USA.gov is the U.S. government's official web portal to all federal, state and local government web resources and services.